createdAt,value
2023-03-07T00:01:09.039Z,11.55
2023-03-07T00:03:36.535Z,11.50
2023-03-07T00:06:06.196Z,11.44
2023-03-07T00:08:35.194Z,11.45
2023-03-07T00:11:06.114Z,11.47
2023-03-07T00:13:34.901Z,11.39
2023-03-07T00:16:04.840Z,11.44
2023-03-07T00:18:33.760Z,11.41
2023-03-07T00:21:02.835Z,11.33
2023-03-07T00:23:31.482Z,11.34
2023-03-07T00:26:00.742Z,11.37
2023-03-07T00:28:31.170Z,11.40
2023-03-07T00:31:01.447Z,11.36
2023-03-07T00:33:29.102Z,11.42
2023-03-07T00:35:57.872Z,11.45
2023-03-07T00:38:25.653Z,11.49
2023-03-07T00:41:01.521Z,11.49
2023-03-07T00:43:31.521Z,11.53
2023-03-07T00:45:59.597Z,11.62
2023-03-07T00:48:27.796Z,11.68
2023-03-07T00:50:56.265Z,11.65
2023-03-07T00:53:23.558Z,11.65
2023-03-07T00:55:58.895Z,11.66
2023-03-07T00:58:27.529Z,11.69
2023-03-07T01:00:57.281Z,11.65
2023-03-07T01:03:25.128Z,11.69
2023-03-07T01:05:53.400Z,11.67
2023-03-07T01:08:22.042Z,11.57
2023-03-07T01:10:50.134Z,11.57
2023-03-07T01:13:19.355Z,11.52
2023-03-07T01:15:46.812Z,11.50
2023-03-07T01:18:15.971Z,11.54
2023-03-07T01:20:43.343Z,11.56
2023-03-07T01:23:11.124Z,11.49
2023-03-07T01:25:39.849Z,11.39
2023-03-07T01:28:08.302Z,11.39
2023-03-07T01:30:35.624Z,11.23
2023-03-07T01:33:03.479Z,11.23
2023-03-07T01:35:38.672Z,11.19
2023-03-07T01:38:06.849Z,11.26
2023-03-07T01:40:34.882Z,11.33
2023-03-07T01:43:22.448Z,11.24
2023-03-07T01:46:43.350Z,11.14
2023-03-07T01:49:18.411Z,11.12
2023-03-07T01:51:51.647Z,11.13
2023-03-07T01:54:20.730Z,11.03
2023-03-07T01:56:48.209Z,11.01
2023-03-07T01:59:20.196Z,11.01
2023-03-07T02:01:48.961Z,11.10
2023-03-07T02:04:22.192Z,11.09
2023-03-07T02:06:52.444Z,11.06
2023-03-07T02:09:22.324Z,11.10
2023-03-07T02:11:50.542Z,11.06
2023-03-07T02:14:18.461Z,11.07
2023-03-07T02:16:47.290Z,11.01
2023-03-07T02:19:30.138Z,11.02
2023-03-07T02:22:09.506Z,10.94
2023-03-07T02:24:47.322Z,10.88
2023-03-07T02:27:16.768Z,10.90
2023-03-07T02:29:44.242Z,10.92
2023-03-07T02:32:11.968Z,10.98
2023-03-07T02:34:39.317Z,10.94
2023-03-07T02:37:11.726Z,10.81
2023-03-07T02:39:42.056Z,10.71
2023-03-07T02:42:13.360Z,10.76
2023-03-07T02:44:46.005Z,10.77
2023-03-07T02:47:14.150Z,10.86
2023-03-07T02:49:41.650Z,10.81
2023-03-07T02:52:09.811Z,10.81
2023-03-07T02:54:37.817Z,10.83
2023-03-07T02:57:06.559Z,10.78
2023-03-07T02:59:33.863Z,10.84
2023-03-07T03:02:03.277Z,10.78
2023-03-07T03:04:30.060Z,10.68
2023-03-07T03:06:57.657Z,10.68
2023-03-07T03:09:25.935Z,10.65
2023-03-07T03:11:53.739Z,10.63
2023-03-07T03:14:21.195Z,10.56
2023-03-07T03:16:48.818Z,10.46
2023-03-07T03:19:17.571Z,10.42
2023-03-07T03:21:45.382Z,10.43
2023-03-07T03:24:13.554Z,10.48
2023-03-07T03:26:41.126Z,10.30
2023-03-07T03:29:08.612Z,10.09
2023-03-07T03:31:35.979Z,10.02
2023-03-07T03:34:03.389Z,10.02
2023-03-07T03:36:33.231Z,10.17
2023-03-07T03:39:01.040Z,10.19
2023-03-07T03:41:28.194Z,10.17
2023-03-07T03:43:56.073Z,10.14
2023-03-07T03:46:24.219Z,10.13
2023-03-07T03:48:53.623Z,10.14
2023-03-07T03:51:22.552Z,10.12
2023-03-07T03:53:52.390Z,10.10
2023-03-07T03:56:21.726Z,10.09
2023-03-07T03:58:50.993Z,10.03
2023-03-07T04:01:19.467Z,9.86
2023-03-07T04:03:49.234Z,9.73
2023-03-07T04:06:19.087Z,9.76
2023-03-07T04:08:46.809Z,9.83
2023-03-07T04:11:15.802Z,9.86
2023-03-07T04:13:43.791Z,9.89
2023-03-07T04:16:11.490Z,9.92
2023-03-07T04:18:39.137Z,9.90
2023-03-07T04:21:07.494Z,9.86
2023-03-07T04:23:35.394Z,9.87
2023-03-07T04:26:04.670Z,9.91
2023-03-07T04:28:36.227Z,9.85
2023-03-07T04:31:03.723Z,9.86
2023-03-07T04:33:31.257Z,9.80
2023-03-07T04:35:59.005Z,9.63
2023-03-07T04:38:26.375Z,9.63
2023-03-07T04:40:54.141Z,9.62
2023-03-07T04:43:22.652Z,9.63
2023-03-07T04:45:52.973Z,9.60
2023-03-07T04:48:20.615Z,9.57
2023-03-07T04:50:50.254Z,9.56
2023-03-07T04:53:18.194Z,9.46
2023-03-07T04:55:46.927Z,9.43
2023-03-07T04:58:14.929Z,9.40
2023-03-07T05:00:43.093Z,9.37
2023-03-07T05:03:13.970Z,9.25
2023-03-07T05:05:42.514Z,9.13
2023-03-07T05:08:09.722Z,9.02
2023-03-07T05:10:37.373Z,9.00
2023-03-07T05:13:05.354Z,9.02
2023-03-07T05:15:32.660Z,8.98
2023-03-07T05:18:00.323Z,8.99
2023-03-07T05:20:29.810Z,8.90
2023-03-07T05:22:57.510Z,8.77
2023-03-07T05:25:25.167Z,8.80
2023-03-07T05:27:53.538Z,8.73
2023-03-07T05:30:20.650Z,8.59
2023-03-07T05:32:49.078Z,8.51
2023-03-07T05:35:17.010Z,8.60
2023-03-07T05:37:46.437Z,8.46
2023-03-07T05:40:14.178Z,8.53
2023-03-07T05:42:41.852Z,8.52
2023-03-07T05:45:10.472Z,8.58
2023-03-07T05:47:38.621Z,8.72
2023-03-07T05:50:07.996Z,8.65
2023-03-07T05:52:36.039Z,8.65
2023-03-07T05:55:05.589Z,8.59
2023-03-07T05:57:33.403Z,8.48
2023-03-07T06:00:00.744Z,8.58
2023-03-07T06:02:28.165Z,8.58
2023-03-07T06:04:55.672Z,8.53
2023-03-07T06:07:22.875Z,8.49
2023-03-07T06:09:50.405Z,8.44
2023-03-07T06:12:19.221Z,8.39
2023-03-07T06:14:46.663Z,8.21
2023-03-07T06:17:13.827Z,8.08
2023-03-07T06:19:41.681Z,8.08
2023-03-07T06:22:09.052Z,8.02
2023-03-07T06:24:36.795Z,7.98
2023-03-07T06:27:04.594Z,8.03
2023-03-07T06:29:33.202Z,8.06
2023-03-07T06:32:00.545Z,8.10
2023-03-07T06:34:28.365Z,8.12
2023-03-07T06:36:55.981Z,8.16
2023-03-07T06:39:23.896Z,8.19
2023-03-07T06:41:52.063Z,8.11
2023-03-07T06:44:19.663Z,8.04
2023-03-07T06:46:49.554Z,8.02
2023-03-07T06:49:17.059Z,8.02
2023-03-07T06:51:45.105Z,7.91
2023-03-07T06:54:12.992Z,7.85
2023-03-07T06:56:42.650Z,7.66
2023-03-07T06:59:10.782Z,7.45
2023-03-07T07:01:38.385Z,7.58
2023-03-07T07:04:08.752Z,7.66
2023-03-07T07:06:36.928Z,7.60
2023-03-07T07:09:04.073Z,7.57
2023-03-07T07:11:32.095Z,7.59
2023-03-07T07:14:00.169Z,7.65
2023-03-07T07:16:27.727Z,7.69
2023-03-07T07:18:55.418Z,7.75
2023-03-07T07:21:24.854Z,7.85
2023-03-07T07:23:52.150Z,7.91
2023-03-07T07:26:19.138Z,7.91
2023-03-07T07:28:46.524Z,8.02
2023-03-07T07:31:13.922Z,8.12
2023-03-07T07:33:42.543Z,8.26
2023-03-07T07:36:10.025Z,8.48
2023-03-07T07:38:39.017Z,8.64
2023-03-07T07:41:06.657Z,9.09
2023-03-07T07:43:34.285Z,10.01
2023-03-07T07:46:03.659Z,11.13
2023-03-07T07:48:32.031Z,11.97
2023-03-07T07:51:01.811Z,12.73
2023-03-07T07:53:29.081Z,13.75
2023-03-07T07:55:58.510Z,14.41
2023-03-07T07:58:26.431Z,15.23
2023-03-07T08:00:54.512Z,15.87
2023-03-07T08:03:22.311Z,16.58
2023-03-07T08:05:50.680Z,17.17
2023-03-07T08:08:19.662Z,17.01
2023-03-07T08:10:48.469Z,17.56
2023-03-07T08:13:17.936Z,17.53
2023-03-07T08:15:45.859Z,18.20
2023-03-07T08:18:13.341Z,18.87
2023-03-07T08:20:41.408Z,19.28
2023-03-07T08:23:09.517Z,19.43
2023-03-07T08:25:37.886Z,19.61
2023-03-07T08:28:05.864Z,19.63
2023-03-07T08:30:36.770Z,20.15
2023-03-07T08:33:04.733Z,19.45
2023-03-07T08:35:33.468Z,19.98
2023-03-07T08:38:01.220Z,18.92
2023-03-07T08:40:30.235Z,19.49
2023-03-07T08:42:59.264Z,20.59
2023-03-07T08:45:27.073Z,20.98
2023-03-07T08:47:57.365Z,20.46
2023-03-07T08:50:27.575Z,20.70
2023-03-07T08:52:55.271Z,20.44
2023-03-07T08:55:23.047Z,19.68
2023-03-07T08:57:51.153Z,19.22
2023-03-07T09:00:19.295Z,18.76
2023-03-07T09:02:47.173Z,18.34
2023-03-07T09:05:16.445Z,18.45
2023-03-07T09:07:43.904Z,18.05
2023-03-07T09:10:12.249Z,17.36
2023-03-07T09:12:39.681Z,16.86
2023-03-07T09:15:08.099Z,16.83
2023-03-07T09:17:35.623Z,16.82
2023-03-07T09:20:03.378Z,16.84
2023-03-07T09:22:32.172Z,17.06
2023-03-07T09:24:59.813Z,17.65
2023-03-07T09:27:27.321Z,17.31
2023-03-07T09:29:54.913Z,16.90
2023-03-07T09:32:22.342Z,16.66
2023-03-07T09:34:49.590Z,16.84
2023-03-07T09:37:17.652Z,17.41
2023-03-07T09:39:49.334Z,17.08
2023-03-07T09:42:26.874Z,16.80
2023-03-07T09:45:26.388Z,16.94
2023-03-07T09:48:08.645Z,16.73
2023-03-07T09:50:46.243Z,16.87
2023-03-07T09:53:23.204Z,17.26
2023-03-07T09:55:58.553Z,17.37
2023-03-07T09:58:28.125Z,16.93
2023-03-07T10:00:58.658Z,16.58
2023-03-07T10:03:34.172Z,16.99
2023-03-07T10:06:08.855Z,16.93
2023-03-07T10:08:36.223Z,16.26
2023-03-07T10:11:18.482Z,15.74
2023-03-07T10:14:00.607Z,15.65
2023-03-07T10:16:35.453Z,15.67
2023-03-07T10:19:10.924Z,15.93
2023-03-07T10:21:45.595Z,16.23
2023-03-07T10:24:26.856Z,16.28
2023-03-07T10:27:01.579Z,16.24
2023-03-07T10:29:35.775Z,15.99
2023-03-07T10:32:17.812Z,15.82
2023-03-07T10:34:47.689Z,16.48
2023-03-07T10:37:19.363Z,17.17
2023-03-07T10:39:51.733Z,17.12
2023-03-07T10:42:23.138Z,16.35
2023-03-07T10:44:51.482Z,15.40
2023-03-07T10:47:21.872Z,14.63
2023-03-07T10:49:51.681Z,14.02
2023-03-07T10:52:30.866Z,13.67
2023-03-07T10:55:31.702Z,13.50
2023-03-07T10:58:16.030Z,14.07
2023-03-07T11:00:44.651Z,15.27
2023-03-07T11:03:26.110Z,15.96
2023-03-07T11:05:54.978Z,16.88
2023-03-07T11:08:28.584Z,16.95
2023-03-07T11:10:56.223Z,16.07
2023-03-07T11:13:25.560Z,15.65
2023-03-07T11:16:11.429Z,15.61
2023-03-07T11:18:42.294Z,14.96
2023-03-07T11:21:29.041Z,14.10
2023-03-07T11:24:01.226Z,13.88
2023-03-07T11:26:32.435Z,13.80
2023-03-07T11:29:09.882Z,13.68
2023-03-07T11:31:48.205Z,13.85
2023-03-07T11:34:26.506Z,14.82
2023-03-07T11:36:57.620Z,15.34
2023-03-07T11:39:34.938Z,14.99
2023-03-07T11:42:13.640Z,15.34
2023-03-07T11:44:51.599Z,15.42
2023-03-07T11:47:45.170Z,15.82
2023-03-07T11:50:21.098Z,16.28
2023-03-07T11:53:25.472Z,16.80
2023-03-07T11:56:04.757Z,17.00
2023-03-07T11:58:55.268Z,16.33
2023-03-07T12:01:33.842Z,15.24
2023-03-07T12:04:42.489Z,14.70
2023-03-07T12:07:22.676Z,15.56
2023-03-07T12:09:57.684Z,16.30
2023-03-07T12:12:54.335Z,17.22
2023-03-07T12:15:42.960Z,17.91
2023-03-07T12:18:33.722Z,18.49
2023-03-07T12:21:19.825Z,18.71
2023-03-07T12:23:49.555Z,18.11
2023-03-07T12:26:24.690Z,17.36
2023-03-07T12:29:01.453Z,17.22
2023-03-07T12:31:35.077Z,17.82
2023-03-07T12:34:11.968Z,19.10
2023-03-07T12:36:44.685Z,20.07
2023-03-07T12:39:19.342Z,19.72
2023-03-07T12:41:59.048Z,18.11
2023-03-07T12:44:41.287Z,17.77
2023-03-07T12:47:21.735Z,18.43
2023-03-07T12:49:57.901Z,19.16
2023-03-07T12:52:42.952Z,19.07
2023-03-07T12:55:20.990Z,18.85
2023-03-07T12:57:56.005Z,18.96
2023-03-07T13:00:25.351Z,18.67
2023-03-07T13:03:00.254Z,18.95
2023-03-07T13:05:37.546Z,19.32
2023-03-07T13:08:08.575Z,19.40
2023-03-07T13:10:36.805Z,17.97
2023-03-07T13:13:42.165Z,16.56
2023-03-07T13:16:11.829Z,16.50
2023-03-07T13:18:39.774Z,16.48
2023-03-07T13:21:11.761Z,16.83
2023-03-07T13:23:39.288Z,16.91
2023-03-07T13:26:13.292Z,16.84
2023-03-07T13:28:58.805Z,16.11
2023-03-07T13:31:42.805Z,15.46
2023-03-07T13:34:49.019Z,15.48
2023-03-07T13:37:49.015Z,16.12
2023-03-07T13:40:51.859Z,16.39
2023-03-07T13:43:55.938Z,16.90
2023-03-07T13:46:51.608Z,16.52
2023-03-07T13:49:37.097Z,16.47
2023-03-07T13:52:43.420Z,15.90
2023-03-07T13:55:28.107Z,15.76
2023-03-07T13:57:58.714Z,15.60
2023-03-07T14:00:41.942Z,15.53
2023-03-07T14:03:28.098Z,15.28
2023-03-07T14:05:59.582Z,15.32
2023-03-07T14:08:31.476Z,15.42
2023-03-07T14:10:59.992Z,15.40
2023-03-07T14:14:03.260Z,14.83
2023-03-07T14:16:54.409Z,14.49
2023-03-07T14:19:46.311Z,14.87
2023-03-07T14:22:26.306Z,16.23
2023-03-07T14:25:07.793Z,16.67
2023-03-07T14:27:50.843Z,15.88
2023-03-07T14:30:20.742Z,15.09
2023-03-07T14:32:48.171Z,14.56
2023-03-07T14:35:16.778Z,14.44
2023-03-07T14:37:44.813Z,14.78
2023-03-07T14:40:35.013Z,14.62
2023-03-07T14:43:22.111Z,14.70
2023-03-07T14:45:58.727Z,15.28
2023-03-07T14:48:45.466Z,15.36
2023-03-07T14:51:16.992Z,15.53
2023-03-07T14:53:44.997Z,15.28
2023-03-07T14:56:22.173Z,14.84
2023-03-07T14:58:54.995Z,14.37
2023-03-07T15:01:23.965Z,14.32
2023-03-07T15:03:53.135Z,14.17
2023-03-07T15:06:23.941Z,13.94
2023-03-07T15:08:53.632Z,13.84
2023-03-07T15:11:30.470Z,14.04
2023-03-07T15:14:02.145Z,14.12
2023-03-07T15:16:35.781Z,14.43
2023-03-07T15:19:11.336Z,14.52
2023-03-07T15:21:44.549Z,14.36
2023-03-07T15:24:18.719Z,14.02
2023-03-07T15:26:50.407Z,14.07
2023-03-07T15:29:21.382Z,14.27
2023-03-07T15:31:54.233Z,14.29
2023-03-07T15:34:25.272Z,14.31
2023-03-07T15:36:54.036Z,14.49
2023-03-07T15:39:31.180Z,14.38
2023-03-07T15:42:04.604Z,14.23
2023-03-07T15:44:32.722Z,14.21
2023-03-07T15:47:13.978Z,14.12
2023-03-07T15:49:44.501Z,14.36
2023-03-07T15:52:22.865Z,14.32
2023-03-07T15:54:52.524Z,13.94
2023-03-07T15:57:22.464Z,13.82
2023-03-07T15:59:54.396Z,13.80
2023-03-07T16:02:47.649Z,13.75
2023-03-07T16:05:37.065Z,13.81
2023-03-07T16:08:13.137Z,13.71
2023-03-07T16:10:47.698Z,13.74
2023-03-07T16:13:18.771Z,13.77
2023-03-07T16:15:46.033Z,13.77
2023-03-07T16:18:26.030Z,13.44
2023-03-07T16:20:54.045Z,13.52
2023-03-07T16:23:23.204Z,13.42
2023-03-07T16:25:50.635Z,13.39
2023-03-07T16:28:18.120Z,13.33
2023-03-07T16:30:46.316Z,13.44
2023-03-07T16:33:14.936Z,13.41
2023-03-07T16:35:44.014Z,13.24
2023-03-07T16:38:11.384Z,13.29
2023-03-07T16:40:42.131Z,13.30
2023-03-07T16:43:33.879Z,13.30
2023-03-07T16:46:03.651Z,13.41
2023-03-07T16:48:31.329Z,13.47
2023-03-07T16:51:00.830Z,13.41
2023-03-07T16:53:29.304Z,13.54
2023-03-07T16:55:58.825Z,13.60
2023-03-07T16:58:30.938Z,13.40
2023-03-07T17:00:58.469Z,13.52
2023-03-07T17:03:25.990Z,13.52
2023-03-07T17:05:54.476Z,13.34
2023-03-07T17:08:24.426Z,13.26
2023-03-07T17:10:52.196Z,13.38
2023-03-07T17:13:19.874Z,13.34
2023-03-07T17:15:47.490Z,13.33
2023-03-07T17:18:15.085Z,13.32
2023-03-07T17:20:44.026Z,13.06
2023-03-07T17:23:11.139Z,13.23
2023-03-07T17:25:41.219Z,13.24
2023-03-07T17:28:14.082Z,13.03
2023-03-07T17:30:41.449Z,12.84
2023-03-07T17:33:10.138Z,12.57
2023-03-07T17:35:38.276Z,12.38
2023-03-07T17:38:05.560Z,12.19
2023-03-07T17:40:33.166Z,12.02
2023-03-07T17:43:02.355Z,11.86
2023-03-07T17:45:29.892Z,11.76
2023-03-07T17:47:57.411Z,11.59
2023-03-07T17:50:25.009Z,11.46
2023-03-07T17:52:53.583Z,11.38
2023-03-07T17:55:22.427Z,11.21
2023-03-07T17:57:51.168Z,11.09
2023-03-07T18:00:21.244Z,11.00
2023-03-07T18:02:49.186Z,11.03
2023-03-07T18:05:18.368Z,10.99
2023-03-07T18:07:46.186Z,10.97
2023-03-07T18:10:13.394Z,10.94
2023-03-07T18:12:43.627Z,10.86
2023-03-07T18:15:14.253Z,10.84
2023-03-07T18:17:49.085Z,10.78
2023-03-07T18:20:18.199Z,10.67
2023-03-07T18:22:45.907Z,10.54
2023-03-07T18:25:15.381Z,10.46
2023-03-07T18:27:43.201Z,10.42
2023-03-07T18:30:12.626Z,10.42
2023-03-07T18:32:40.024Z,10.36
2023-03-07T18:35:10.155Z,10.28
2023-03-07T18:37:37.649Z,10.09
2023-03-07T18:40:06.050Z,9.93
2023-03-07T18:42:33.544Z,9.92
2023-03-07T18:45:01.121Z,9.71
2023-03-07T18:47:28.613Z,9.55
2023-03-07T18:49:55.973Z,9.48
2023-03-07T18:52:25.004Z,9.46
2023-03-07T18:54:52.188Z,9.39
2023-03-07T18:57:19.900Z,9.37
2023-03-07T18:59:47.473Z,9.23
2023-03-07T19:02:14.709Z,9.19
2023-03-07T19:04:41.811Z,9.16
2023-03-07T19:07:09.702Z,9.12
2023-03-07T19:09:38.742Z,9.04
2023-03-07T19:12:06.708Z,8.98
2023-03-07T19:14:34.648Z,8.92
2023-03-07T19:17:03.385Z,8.87
2023-03-07T19:19:30.771Z,8.63
2023-03-07T19:21:58.241Z,8.55
2023-03-07T19:24:27.578Z,8.49
2023-03-07T19:26:56.272Z,8.42
2023-03-07T19:29:24.298Z,8.19
2023-03-07T19:31:51.793Z,8.16
2023-03-07T19:34:18.943Z,8.17
2023-03-07T19:36:48.423Z,8.18
2023-03-07T19:39:15.663Z,8.16
2023-03-07T19:41:44.101Z,8.10
2023-03-07T19:44:15.453Z,8.06
2023-03-07T19:46:43.077Z,8.02
2023-03-07T19:49:10.963Z,8.03
2023-03-07T19:51:39.384Z,7.92
2023-03-07T19:54:06.785Z,7.89
2023-03-07T19:56:34.279Z,7.88
2023-03-07T19:59:02.822Z,7.80
2023-03-07T20:01:31.889Z,7.78
2023-03-07T20:03:59.539Z,7.80
2023-03-07T20:06:29.595Z,7.78
2023-03-07T20:08:58.342Z,7.74
2023-03-07T20:11:28.387Z,7.71
2023-03-07T20:13:58.785Z,7.68
2023-03-07T20:16:27.651Z,7.66
2023-03-07T20:18:58.283Z,7.66
2023-03-07T20:21:28.284Z,7.58
2023-03-07T20:23:57.118Z,7.51
2023-03-07T20:26:27.299Z,7.42
2023-03-07T20:28:56.099Z,7.33
2023-03-07T20:31:24.118Z,7.29
2023-03-07T20:33:52.109Z,7.24
2023-03-07T20:36:22.774Z,7.21
2023-03-07T20:38:51.812Z,7.18
2023-03-07T20:41:21.245Z,7.16
2023-03-07T20:43:49.182Z,7.21
2023-03-07T20:46:18.541Z,7.10
2023-03-07T20:48:47.303Z,7.00
2023-03-07T20:51:16.604Z,6.94
2023-03-07T20:53:46.101Z,7.08
2023-03-07T20:56:13.964Z,7.04
2023-03-07T20:58:41.904Z,7.07
2023-03-07T21:01:10.146Z,7.18
2023-03-07T21:03:39.000Z,7.11
2023-03-07T21:06:07.046Z,7.02
2023-03-07T21:08:36.438Z,7.11
2023-03-07T21:11:07.588Z,7.15
2023-03-07T21:13:36.669Z,7.10
2023-03-07T21:16:06.270Z,7.13
2023-03-07T21:18:35.074Z,7.18
2023-03-07T21:21:04.773Z,7.12
2023-03-07T21:23:33.287Z,7.14
2023-03-07T21:26:02.247Z,7.15
2023-03-07T21:28:32.089Z,7.19
2023-03-07T21:31:00.819Z,7.18
2023-03-07T21:33:28.573Z,7.18
2023-03-07T21:35:56.780Z,7.12
2023-03-07T21:38:25.288Z,6.88
2023-03-07T21:40:54.048Z,6.82
2023-03-07T21:43:22.850Z,6.84
2023-03-07T21:45:52.034Z,6.84
2023-03-07T21:48:19.475Z,6.92
2023-03-07T21:50:48.140Z,7.07
2023-03-07T21:53:15.313Z,7.19
2023-03-07T21:55:51.736Z,7.24
2023-03-07T21:58:22.819Z,7.32
2023-03-07T22:00:53.420Z,7.34
2023-03-07T22:03:21.225Z,7.24
2023-03-07T22:05:48.607Z,7.06
2023-03-07T22:08:16.888Z,6.98
2023-03-07T22:10:45.412Z,7.08
2023-03-07T22:13:12.928Z,7.10
2023-03-07T22:15:41.336Z,7.15
2023-03-07T22:18:11.307Z,7.13
2023-03-07T22:20:38.772Z,7.20
2023-03-07T22:23:07.552Z,7.14
2023-03-07T22:25:34.507Z,7.17
2023-03-07T22:28:01.724Z,7.11
2023-03-07T22:30:30.207Z,7.18
2023-03-07T22:32:57.619Z,7.15
2023-03-07T22:35:27.028Z,7.12
2023-03-07T22:37:54.545Z,7.01
2023-03-07T22:40:21.352Z,7.02
2023-03-07T22:42:48.592Z,6.99
2023-03-07T22:45:16.696Z,6.97
2023-03-07T22:47:44.893Z,6.84
2023-03-07T22:50:12.378Z,6.92
2023-03-07T22:52:41.400Z,6.93
2023-03-07T22:55:09.736Z,7.08
2023-03-07T22:57:37.782Z,7.13
2023-03-07T23:00:06.197Z,6.94
2023-03-07T23:02:33.177Z,6.57
2023-03-07T23:05:01.187Z,6.38
2023-03-07T23:07:28.794Z,5.96
2023-03-07T23:09:58.449Z,6.44
2023-03-07T23:12:25.874Z,6.50
2023-03-07T23:14:55.051Z,6.51
2023-03-07T23:17:22.402Z,6.43
2023-03-07T23:19:52.954Z,6.44
2023-03-07T23:22:20.635Z,6.42
2023-03-07T23:24:48.161Z,6.36
2023-03-07T23:27:17.223Z,6.32
2023-03-07T23:29:45.312Z,6.20
2023-03-07T23:32:17.282Z,6.19
2023-03-07T23:34:44.903Z,6.23
2023-03-07T23:37:12.538Z,6.30
2023-03-07T23:39:40.307Z,6.27
2023-03-07T23:42:09.993Z,6.11
2023-03-07T23:44:39.273Z,6.02
2023-03-07T23:47:08.252Z,6.00
2023-03-07T23:49:35.969Z,5.95
2023-03-07T23:52:03.333Z,5.94
2023-03-07T23:54:31.094Z,5.96
2023-03-07T23:56:59.680Z,6.02
2023-03-07T23:59:27.433Z,6.09
